sensor_id;sensor_type;location;lat;lon;timestamp;P1;durP1;ratioP1;P2;durP2;ratioP2
20441;SDS011;10380;52.102;20.614;2023-07-20T00:01:52;6.80;;;3.15;;
20441;SDS011;10380;52.102;20.614;2023-07-20T00:04:19;5.28;;;2.78;;
20441;SDS011;10380;52.102;20.614;2023-07-20T00:06:46;5.72;;;3.30;;
20441;SDS011;10380;52.102;20.614;2023-07-20T00:09:13;7.00;;;3.03;;
20441;SDS011;10380;52.102;20.614;2023-07-20T00:11:39;6.55;;;3.15;;
20441;SDS011;10380;52.102;20.614;2023-07-20T00:14:07;5.70;;;3.33;;
20441;SDS011;10380;52.102;20.614;2023-07-20T00:16:33;5.13;;;3.30;;
20441;SDS011;10380;52.102;20.614;2023-07-20T00:19:00;5.32;;;3.15;;
20441;SDS011;10380;52.102;20.614;2023-07-20T00:21:27;6.07;;;3.13;;
20441;SDS011;10380;52.102;20.614;2023-07-20T00:23:54;5.38;;;3.10;;
20441;SDS011;10380;52.102;20.614;2023-07-20T00:26:21;6.57;;;3.22;;
20441;SDS011;10380;52.102;20.614;2023-07-20T00:28:49;5.60;;;2.92;;
20441;SDS011;10380;52.102;20.614;2023-07-20T00:31:17;7.85;;;3.33;;
20441;SDS011;10380;52.102;20.614;2023-07-20T00:33:45;3.78;;;3.10;;
20441;SDS011;10380;52.102;20.614;2023-07-20T00:36:12;3.78;;;2.88;;
20441;SDS011;10380;52.102;20.614;2023-07-20T00:38:39;4.95;;;3.30;;
20441;SDS011;10380;52.102;20.614;2023-07-20T00:41:07;4.68;;;2.95;;
20441;SDS011;10380;52.102;20.614;2023-07-20T00:43:34;5.97;;;3.05;;
20441;SDS011;10380;52.102;20.614;2023-07-20T00:46:01;8.60;;;3.22;;
20441;SDS011;10380;52.102;20.614;2023-07-20T00:48:29;5.40;;;3.28;;
20441;SDS011;10380;52.102;20.614;2023-07-20T00:51:00;3.42;;;3.10;;
20441;SDS011;10380;52.102;20.614;2023-07-20T00:53:28;7.50;;;3.08;;
20441;SDS011;10380;52.102;20.614;2023-07-20T00:55:56;5.45;;;3.03;;
20441;SDS011;10380;52.102;20.614;2023-07-20T00:58:23;7.72;;;3.50;;
20441;SDS011;10380;52.102;20.614;2023-07-20T01:00:51;6.57;;;3.88;;
20441;SDS011;10380;52.102;20.614;2023-07-20T01:03:18;5.57;;;2.92;;
20441;SDS011;10380;52.102;20.614;2023-07-20T01:05:54;3.78;;;2.88;;
20441;SDS011;10380;52.102;20.614;2023-07-20T01:11:38;6.43;;;2.90;;
20441;SDS011;10380;52.102;20.614;2023-07-20T01:14:05;5.07;;;3.78;;
20441;SDS011;10380;52.102;20.614;2023-07-20T01:16:33;5.68;;;3.28;;
20441;SDS011;10380;52.102;20.614;2023-07-20T01:19:00;5.93;;;3.45;;
20441;SDS011;10380;52.102;20.614;2023-07-20T01:24:30;4.50;;;3.10;;
20441;SDS011;10380;52.102;20.614;2023-07-20T01:27:17;9.43;;;3.40;;
20441;SDS011;10380;52.102;20.614;2023-07-20T01:32:40;5.22;;;3.42;;
20441;SDS011;10380;52.102;20.614;2023-07-20T01:35:12;7.28;;;3.40;;
20441;SDS011;10380;52.102;20.614;2023-07-20T01:37:41;5.28;;;3.25;;
20441;SDS011;10380;52.102;20.614;2023-07-20T01:40:10;4.43;;;3.45;;
20441;SDS011;10380;52.102;20.614;2023-07-20T01:42:43;7.10;;;3.58;;
20441;SDS011;10380;52.102;20.614;2023-07-20T01:45:12;4.90;;;3.63;;
20441;SDS011;10380;52.102;20.614;2023-07-20T01:47:39;8.18;;;3.78;;
20441;SDS011;10380;52.102;20.614;2023-07-20T01:50:07;9.07;;;3.83;;
20441;SDS011;10380;52.102;20.614;2023-07-20T01:52:35;4.68;;;3.53;;
20441;SDS011;10380;52.102;20.614;2023-07-20T01:55:02;5.28;;;3.78;;
20441;SDS011;10380;52.102;20.614;2023-07-20T01:57:31;6.70;;;3.70;;
20441;SDS011;10380;52.102;20.614;2023-07-20T01:59:58;6.55;;;3.85;;
20441;SDS011;10380;52.102;20.614;2023-07-20T02:02:26;4.93;;;3.97;;
20441;SDS011;10380;52.102;20.614;2023-07-20T02:04:56;8.13;;;3.65;;
20441;SDS011;10380;52.102;20.614;2023-07-20T02:07:23;6.88;;;4.53;;
20441;SDS011;10380;52.102;20.614;2023-07-20T02:09:51;6.18;;;3.38;;
20441;SDS011;10380;52.102;20.614;2023-07-20T02:12:18;4.53;;;3.90;;
20441;SDS011;10380;52.102;20.614;2023-07-20T02:14:45;7.00;;;4.05;;
20441;SDS011;10380;52.102;20.614;2023-07-20T02:17:12;6.20;;;3.97;;
20441;SDS011;10380;52.102;20.614;2023-07-20T02:19:40;5.75;;;3.95;;
20441;SDS011;10380;52.102;20.614;2023-07-20T02:22:07;7.20;;;4.10;;
20441;SDS011;10380;52.102;20.614;2023-07-20T02:24:34;5.93;;;4.10;;
20441;SDS011;10380;52.102;20.614;2023-07-20T02:27:01;5.95;;;4.00;;
20441;SDS011;10380;52.102;20.614;2023-07-20T02:29:28;8.85;;;4.68;;
20441;SDS011;10380;52.102;20.614;2023-07-20T02:31:55;7.03;;;4.00;;
20441;SDS011;10380;52.102;20.614;2023-07-20T02:34:22;6.78;;;3.53;;
20441;SDS011;10380;52.102;20.614;2023-07-20T02:36:49;6.63;;;3.95;;
20441;SDS011;10380;52.102;20.614;2023-07-20T02:39:16;7.05;;;4.15;;
20441;SDS011;10380;52.102;20.614;2023-07-20T02:41:43;6.53;;;4.60;;
20441;SDS011;10380;52.102;20.614;2023-07-20T02:44:10;7.88;;;3.22;;
20441;SDS011;10380;52.102;20.614;2023-07-20T02:46:37;6.18;;;3.97;;
20441;SDS011;10380;52.102;20.614;2023-07-20T02:49:04;7.57;;;3.65;;
20441;SDS011;10380;52.102;20.614;2023-07-20T02:51:31;5.53;;;3.58;;
20441;SDS011;10380;52.102;20.614;2023-07-20T02:53:59;7.85;;;4.03;;
20441;SDS011;10380;52.102;20.614;2023-07-20T02:56:26;5.30;;;4.18;;
20441;SDS011;10380;52.102;20.614;2023-07-20T02:58:53;7.65;;;4.00;;
20441;SDS011;10380;52.102;20.614;2023-07-20T03:01:20;7.13;;;4.38;;
20441;SDS011;10380;52.102;20.614;2023-07-20T03:03:47;8.18;;;4.57;;
20441;SDS011;10380;52.102;20.614;2023-07-20T03:06:14;5.80;;;4.40;;
20441;SDS011;10380;52.102;20.614;2023-07-20T03:08:42;7.68;;;3.97;;
20441;SDS011;10380;52.102;20.614;2023-07-20T03:11:16;8.20;;;4.05;;
20441;SDS011;10380;52.102;20.614;2023-07-20T03:13:43;7.65;;;4.57;;
20441;SDS011;10380;52.102;20.614;2023-07-20T03:16:11;8.25;;;4.22;;
20441;SDS011;10380;52.102;20.614;2023-07-20T03:18:41;8.32;;;4.00;;
20441;SDS011;10380;52.102;20.614;2023-07-20T03:21:09;7.88;;;4.30;;
20441;SDS011;10380;52.102;20.614;2023-07-20T03:23:40;9.13;;;4.32;;
20441;SDS011;10380;52.102;20.614;2023-07-20T03:26:08;8.38;;;4.03;;
20441;SDS011;10380;52.102;20.614;2023-07-20T03:28:35;7.05;;;3.95;;
20441;SDS011;10380;52.102;20.614;2023-07-20T03:31:04;8.00;;;4.38;;
20441;SDS011;10380;52.102;20.614;2023-07-20T03:33:31;7.68;;;4.22;;
20441;SDS011;10380;52.102;20.614;2023-07-20T03:35:58;7.68;;;4.20;;
20441;SDS011;10380;52.102;20.614;2023-07-20T03:38:26;8.60;;;4.60;;
20441;SDS011;10380;52.102;20.614;2023-07-20T03:40:55;5.35;;;4.15;;
20441;SDS011;10380;52.102;20.614;2023-07-20T03:43:26;6.90;;;4.35;;
20441;SDS011;10380;52.102;20.614;2023-07-20T03:45:54;6.47;;;4.45;;
20441;SDS011;10380;52.102;20.614;2023-07-20T03:48:23;7.22;;;5.10;;
20441;SDS011;10380;52.102;20.614;2023-07-20T03:50:52;6.20;;;4.40;;
20441;SDS011;10380;52.102;20.614;2023-07-20T03:53:20;6.38;;;4.20;;
20441;SDS011;10380;52.102;20.614;2023-07-20T03:55:48;6.63;;;4.20;;
20441;SDS011;10380;52.102;20.614;2023-07-20T03:58:16;10.27;;;5.13;;
20441;SDS011;10380;52.102;20.614;2023-07-20T04:00:48;7.70;;;5.80;;
20441;SDS011;10380;52.102;20.614;2023-07-20T04:03:17;8.73;;;5.57;;
20441;SDS011;10380;52.102;20.614;2023-07-20T04:05:45;7.10;;;5.15;;
20441;SDS011;10380;52.102;20.614;2023-07-20T04:08:12;7.25;;;6.15;;
20441;SDS011;10380;52.102;20.614;2023-07-20T04:10:43;8.23;;;5.20;;
20441;SDS011;10380;52.102;20.614;2023-07-20T04:13:11;10.70;;;5.55;;
20441;SDS011;10380;52.102;20.614;2023-07-20T04:15:38;8.23;;;5.28;;
20441;SDS011;10380;52.102;20.614;2023-07-20T04:18:05;7.07;;;4.30;;
20441;SDS011;10380;52.102;20.614;2023-07-20T04:20:32;7.78;;;4.88;;
20441;SDS011;10380;52.102;20.614;2023-07-20T04:22:59;8.82;;;4.97;;
20441;SDS011;10380;52.102;20.614;2023-07-20T04:25:26;14.27;;;9.68;;
20441;SDS011;10380;52.102;20.614;2023-07-20T04:27:53;8.02;;;5.47;;
20441;SDS011;10380;52.102;20.614;2023-07-20T04:30:22;9.57;;;5.80;;
20441;SDS011;10380;52.102;20.614;2023-07-20T04:32:51;8.80;;;5.38;;
20441;SDS011;10380;52.102;20.614;2023-07-20T04:35:25;7.90;;;5.53;;
20441;SDS011;10380;52.102;20.614;2023-07-20T04:38:19;7.15;;;5.18;;
20441;SDS011;10380;52.102;20.614;2023-07-20T04:40:47;5.70;;;4.93;;
20441;SDS011;10380;52.102;20.614;2023-07-20T04:43:16;7.88;;;5.75;;
20441;SDS011;10380;52.102;20.614;2023-07-20T04:45:44;8.27;;;4.50;;
20441;SDS011;10380;52.102;20.614;2023-07-20T04:48:12;10.68;;;5.90;;
20441;SDS011;10380;52.102;20.614;2023-07-20T04:50:41;6.97;;;4.60;;
20441;SDS011;10380;52.102;20.614;2023-07-20T04:53:09;6.20;;;5.13;;
20441;SDS011;10380;52.102;20.614;2023-07-20T04:55:39;8.45;;;5.15;;
20441;SDS011;10380;52.102;20.614;2023-07-20T04:58:06;6.70;;;4.68;;
20441;SDS011;10380;52.102;20.614;2023-07-20T05:00:33;5.70;;;4.72;;
20441;SDS011;10380;52.102;20.614;2023-07-20T05:03:01;8.23;;;4.97;;
20441;SDS011;10380;52.102;20.614;2023-07-20T05:05:28;7.30;;;5.15;;
20441;SDS011;10380;52.102;20.614;2023-07-20T05:07:55;7.07;;;4.50;;
20441;SDS011;10380;52.102;20.614;2023-07-20T05:10:22;7.63;;;4.90;;
20441;SDS011;10380;52.102;20.614;2023-07-20T05:12:50;6.45;;;4.75;;
20441;SDS011;10380;52.102;20.614;2023-07-20T05:15:16;7.15;;;4.63;;
20441;SDS011;10380;52.102;20.614;2023-07-20T05:17:44;7.57;;;5.32;;
20441;SDS011;10380;52.102;20.614;2023-07-20T05:20:11;7.43;;;5.38;;
20441;SDS011;10380;52.102;20.614;2023-07-20T05:22:38;8.50;;;5.43;;
20441;SDS011;10380;52.102;20.614;2023-07-20T05:25:07;7.05;;;5.47;;
20441;SDS011;10380;52.102;20.614;2023-07-20T05:27:37;7.43;;;5.63;;
20441;SDS011;10380;52.102;20.614;2023-07-20T05:30:05;10.18;;;5.80;;
20441;SDS011;10380;52.102;20.614;2023-07-20T05:32:36;8.27;;;5.05;;
20441;SDS011;10380;52.102;20.614;2023-07-20T05:35:03;9.32;;;5.75;;
20441;SDS011;10380;52.102;20.614;2023-07-20T05:37:30;7.20;;;4.72;;
20441;SDS011;10380;52.102;20.614;2023-07-20T05:39:59;7.65;;;5.03;;
20441;SDS011;10380;52.102;20.614;2023-07-20T05:42:26;7.55;;;4.95;;
20441;SDS011;10380;52.102;20.614;2023-07-20T05:44:53;11.10;;;5.50;;
20441;SDS011;10380;52.102;20.614;2023-07-20T05:47:21;6.50;;;5.28;;
20441;SDS011;10380;52.102;20.614;2023-07-20T05:49:48;6.97;;;5.20;;
20441;SDS011;10380;52.102;20.614;2023-07-20T05:52:15;6.97;;;5.25;;
20441;SDS011;10380;52.102;20.614;2023-07-20T05:54:42;29.48;;;22.60;;
20441;SDS011;10380;52.102;20.614;2023-07-20T05:57:09;7.40;;;5.63;;
20441;SDS011;10380;52.102;20.614;2023-07-20T05:59:36;8.45;;;5.75;;
20441;SDS011;10380;52.102;20.614;2023-07-20T06:02:04;8.63;;;5.40;;
20441;SDS011;10380;52.102;20.614;2023-07-20T06:04:32;10.25;;;5.95;;
20441;SDS011;10380;52.102;20.614;2023-07-20T06:06:59;8.75;;;4.85;;
20441;SDS011;10380;52.102;20.614;2023-07-20T06:09:26;6.75;;;5.78;;
20441;SDS011;10380;52.102;20.614;2023-07-20T06:11:53;9.00;;;5.15;;
20441;SDS011;10380;52.102;20.614;2023-07-20T06:14:21;6.22;;;4.90;;
20441;SDS011;10380;52.102;20.614;2023-07-20T06:16:48;7.80;;;5.82;;
20441;SDS011;10380;52.102;20.614;2023-07-20T06:19:15;9.63;;;5.40;;
20441;SDS011;10380;52.102;20.614;2023-07-20T06:21:42;9.50;;;5.53;;
20441;SDS011;10380;52.102;20.614;2023-07-20T06:24:09;10.90;;;7.47;;
20441;SDS011;10380;52.102;20.614;2023-07-20T06:26:36;7.05;;;5.25;;
20441;SDS011;10380;52.102;20.614;2023-07-20T06:29:05;7.45;;;5.45;;
20441;SDS011;10380;52.102;20.614;2023-07-20T06:31:33;10.63;;;6.03;;
20441;SDS011;10380;52.102;20.614;2023-07-20T06:34:01;7.90;;;5.15;;
20441;SDS011;10380;52.102;20.614;2023-07-20T06:36:29;13.98;;;10.20;;
20441;SDS011;10380;52.102;20.614;2023-07-20T06:38:56;7.85;;;6.60;;
20441;SDS011;10380;52.102;20.614;2023-07-20T06:41:26;6.53;;;5.43;;
20441;SDS011;10380;52.102;20.614;2023-07-20T06:43:55;7.70;;;5.43;;
20441;SDS011;10380;52.102;20.614;2023-07-20T06:46:25;7.22;;;5.22;;
20441;SDS011;10380;52.102;20.614;2023-07-20T06:48:53;8.18;;;5.75;;
20441;SDS011;10380;52.102;20.614;2023-07-20T06:51:24;6.35;;;5.60;;
20441;SDS011;10380;52.102;20.614;2023-07-20T06:53:52;9.65;;;5.60;;
20441;SDS011;10380;52.102;20.614;2023-07-20T06:56:18;7.47;;;5.22;;
20441;SDS011;10380;52.102;20.614;2023-07-20T06:58:50;10.07;;;6.45;;
20441;SDS011;10380;52.102;20.614;2023-07-20T07:01:16;8.48;;;5.70;;
20441;SDS011;10380;52.102;20.614;2023-07-20T07:03:45;6.43;;;5.63;;
20441;SDS011;10380;52.102;20.614;2023-07-20T07:06:13;8.25;;;5.80;;
20441;SDS011;10380;52.102;20.614;2023-07-20T07:08:40;7.97;;;5.97;;
20441;SDS011;10380;52.102;20.614;2023-07-20T07:11:07;8.20;;;5.65;;
20441;SDS011;10380;52.102;20.614;2023-07-20T07:13:34;11.63;;;6.05;;
20441;SDS011;10380;52.102;20.614;2023-07-20T07:16:01;8.57;;;6.65;;
20441;SDS011;10380;52.102;20.614;2023-07-20T07:18:28;9.43;;;6.47;;
20441;SDS011;10380;52.102;20.614;2023-07-20T07:20:56;7.65;;;6.55;;
20441;SDS011;10380;52.102;20.614;2023-07-20T07:23:28;9.15;;;6.53;;
20441;SDS011;10380;52.102;20.614;2023-07-20T07:25:54;9.07;;;6.85;;
20441;SDS011;10380;52.102;20.614;2023-07-20T07:28:22;7.45;;;6.38;;
20441;SDS011;10380;52.102;20.614;2023-07-20T07:30:49;9.23;;;6.10;;
20441;SDS011;10380;52.102;20.614;2023-07-20T07:33:16;7.53;;;6.13;;
20441;SDS011;10380;52.102;20.614;2023-07-20T07:35:42;8.05;;;6.10;;
20441;SDS011;10380;52.102;20.614;2023-07-20T07:38:09;10.32;;;6.30;;
20441;SDS011;10380;52.102;20.614;2023-07-20T07:40:57;8.98;;;7.10;;
20441;SDS011;10380;52.102;20.614;2023-07-20T07:43:25;8.23;;;6.45;;
20441;SDS011;10380;52.102;20.614;2023-07-20T07:45:53;8.27;;;6.47;;
20441;SDS011;10380;52.102;20.614;2023-07-20T07:48:22;8.88;;;6.40;;
20441;SDS011;10380;52.102;20.614;2023-07-20T07:50:48;8.10;;;5.75;;
20441;SDS011;10380;52.102;20.614;2023-07-20T07:53:16;11.75;;;5.95;;
20441;SDS011;10380;52.102;20.614;2023-07-20T07:55:44;13.05;;;6.43;;
20441;SDS011;10380;52.102;20.614;2023-07-20T07:58:11;12.65;;;7.35;;
20441;SDS011;10380;52.102;20.614;2023-07-20T08:00:39;10.52;;;9.13;;
20441;SDS011;10380;52.102;20.614;2023-07-20T08:03:06;12.20;;;11.00;;
20441;SDS011;10380;52.102;20.614;2023-07-20T08:05:33;10.00;;;6.78;;
20441;SDS011;10380;52.102;20.614;2023-07-20T08:08:04;8.50;;;6.15;;
20441;SDS011;10380;52.102;20.614;2023-07-20T08:10:31;7.78;;;5.70;;
20441;SDS011;10380;52.102;20.614;2023-07-20T08:12:58;5.97;;;4.93;;
20441;SDS011;10380;52.102;20.614;2023-07-20T08:15:25;8.73;;;5.25;;
20441;SDS011;10380;52.102;20.614;2023-07-20T08:17:52;7.47;;;4.93;;
20441;SDS011;10380;52.102;20.614;2023-07-20T08:20:20;7.35;;;4.68;;
20441;SDS011;10380;52.102;20.614;2023-07-20T08:22:54;5.22;;;4.63;;
20441;SDS011;10380;52.102;20.614;2023-07-20T08:25:21;6.47;;;5.30;;
20441;SDS011;10380;52.102;20.614;2023-07-20T08:27:48;6.28;;;4.70;;
20441;SDS011;10380;52.102;20.614;2023-07-20T08:30:15;6.60;;;5.35;;
20441;SDS011;10380;52.102;20.614;2023-07-20T08:32:42;9.75;;;4.65;;
20441;SDS011;10380;52.102;20.614;2023-07-20T08:35:10;7.30;;;5.10;;
20441;SDS011;10380;52.102;20.614;2023-07-20T08:37:37;5.50;;;4.90;;
20441;SDS011;10380;52.102;20.614;2023-07-20T08:40:04;7.30;;;5.30;;
20441;SDS011;10380;52.102;20.614;2023-07-20T08:42:36;6.43;;;5.35;;
20441;SDS011;10380;52.102;20.614;2023-07-20T08:45:06;7.40;;;5.07;;
20441;SDS011;10380;52.102;20.614;2023-07-20T08:47:34;6.90;;;5.60;;
20441;SDS011;10380;52.102;20.614;2023-07-20T08:50:02;8.35;;;5.72;;
20441;SDS011;10380;52.102;20.614;2023-07-20T08:52:34;6.70;;;5.40;;
20441;SDS011;10380;52.102;20.614;2023-07-20T08:55:01;6.40;;;4.88;;
20441;SDS011;10380;52.102;20.614;2023-07-20T08:57:31;7.57;;;4.60;;
20441;SDS011;10380;52.102;20.614;2023-07-20T09:00:02;6.00;;;4.38;;
20441;SDS011;10380;52.102;20.614;2023-07-20T09:02:35;5.60;;;4.30;;
20441;SDS011;10380;52.102;20.614;2023-07-20T09:05:05;5.25;;;4.28;;
20441;SDS011;10380;52.102;20.614;2023-07-20T09:07:36;5.38;;;4.53;;
20441;SDS011;10380;52.102;20.614;2023-07-20T09:10:04;4.95;;;4.45;;
20441;SDS011;10380;52.102;20.614;2023-07-20T09:12:35;4.43;;;3.80;;
20441;SDS011;10380;52.102;20.614;2023-07-20T09:15:04;4.45;;;3.78;;
20441;SDS011;10380;52.102;20.614;2023-07-20T09:17:32;5.15;;;4.03;;
20441;SDS011;10380;52.102;20.614;2023-07-20T09:20:06;7.55;;;4.20;;
20441;SDS011;10380;52.102;20.614;2023-07-20T09:22:37;4.68;;;3.58;;
20441;SDS011;10380;52.102;20.614;2023-07-20T09:25:10;4.78;;;4.15;;
20441;SDS011;10380;52.102;20.614;2023-07-20T09:27:44;4.72;;;3.78;;
20441;SDS011;10380;52.102;20.614;2023-07-20T09:30:13;4.45;;;3.42;;
20441;SDS011;10380;52.102;20.614;2023-07-20T09:35:18;5.90;;;3.72;;
20441;SDS011;10380;52.102;20.614;2023-07-20T09:37:54;4.43;;;3.50;;
20441;SDS011;10380;52.102;20.614;2023-07-20T09:40:27;6.05;;;4.20;;
20441;SDS011;10380;52.102;20.614;2023-07-20T09:42:58;5.30;;;3.60;;
20441;SDS011;10380;52.102;20.614;2023-07-20T09:45:34;4.25;;;3.85;;
20441;SDS011;10380;52.102;20.614;2023-07-20T09:48:23;4.65;;;2.42;;
20441;SDS011;10380;52.102;20.614;2023-07-20T09:50:56;4.88;;;3.53;;
20441;SDS011;10380;52.102;20.614;2023-07-20T09:53:24;4.10;;;2.40;;
20441;SDS011;10380;52.102;20.614;2023-07-20T09:55:53;3.85;;;2.70;;
20441;SDS011;10380;52.102;20.614;2023-07-20T09:58:21;5.03;;;3.30;;
20441;SDS011;10380;52.102;20.614;2023-07-20T10:00:50;7.28;;;3.20;;
20441;SDS011;10380;52.102;20.614;2023-07-20T10:03:20;4.22;;;3.63;;
20441;SDS011;10380;52.102;20.614;2023-07-20T10:05:54;5.85;;;3.25;;
20441;SDS011;10380;52.102;20.614;2023-07-20T10:08:29;2.78;;;2.58;;
20441;SDS011;10380;52.102;20.614;2023-07-20T10:11:01;5.68;;;3.10;;
20441;SDS011;10380;52.102;20.614;2023-07-20T10:13:30;6.10;;;3.80;;
20441;SDS011;10380;52.102;20.614;2023-07-20T10:15:59;4.35;;;3.05;;
20441;SDS011;10380;52.102;20.614;2023-07-20T10:21:42;4.95;;;2.75;;
20441;SDS011;10380;52.102;20.614;2023-07-20T10:24:21;4.47;;;2.45;;
20441;SDS011;10380;52.102;20.614;2023-07-20T10:26:50;6.38;;;3.28;;
20441;SDS011;10380;52.102;20.614;2023-07-20T10:29:18;6.28;;;2.63;;
20441;SDS011;10380;52.102;20.614;2023-07-20T10:31:45;3.20;;;2.53;;
20441;SDS011;10380;52.102;20.614;2023-07-20T10:34:13;4.15;;;2.58;;
20441;SDS011;10380;52.102;20.614;2023-07-20T10:36:43;4.35;;;2.97;;
20441;SDS011;10380;52.102;20.614;2023-07-20T10:39:24;5.45;;;3.50;;
20441;SDS011;10380;52.102;20.614;2023-07-20T10:42:07;4.60;;;2.72;;
20441;SDS011;10380;52.102;20.614;2023-07-20T10:44:37;3.80;;;2.70;;
20441;SDS011;10380;52.102;20.614;2023-07-20T10:47:12;4.25;;;2.70;;
20441;SDS011;10380;52.102;20.614;2023-07-20T10:50:13;2.97;;;2.40;;
20441;SDS011;10380;52.102;20.614;2023-07-20T10:52:37;4.43;;;2.45;;
20441;SDS011;10380;52.102;20.614;2023-07-20T10:55:16;3.38;;;2.17;;
20441;SDS011;10380;52.102;20.614;2023-07-20T10:57:44;3.38;;;2.33;;
20441;SDS011;10380;52.102;20.614;2023-07-20T11:01:04;3.75;;;2.50;;
20441;SDS011;10380;52.102;20.614;2023-07-20T11:03:33;3.97;;;2.40;;
20441;SDS011;10380;52.102;20.614;2023-07-20T11:11:30;4.53;;;2.60;;
20441;SDS011;10380;52.102;20.614;2023-07-20T11:13:59;4.32;;;2.10;;
20441;SDS011;10380;52.102;20.614;2023-07-20T11:16:46;3.47;;;3.05;;
20441;SDS011;10380;52.102;20.614;2023-07-20T11:21:55;3.75;;;2.30;;
20441;SDS011;10380;52.102;20.614;2023-07-20T11:24:30;3.47;;;2.42;;
20441;SDS011;10380;52.102;20.614;2023-07-20T11:26:58;3.72;;;2.40;;
20441;SDS011;10380;52.102;20.614;2023-07-20T11:29:26;2.67;;;1.80;;
20441;SDS011;10380;52.102;20.614;2023-07-20T11:31:59;6.15;;;2.47;;
20441;SDS011;10380;52.102;20.614;2023-07-20T11:34:26;3.40;;;2.13;;
20441;SDS011;10380;52.102;20.614;2023-07-20T11:36:54;2.85;;;2.08;;
20441;SDS011;10380;52.102;20.614;2023-07-20T11:39:24;2.83;;;2.45;;
20441;SDS011;10380;52.102;20.614;2023-07-20T11:41:53;2.90;;;1.90;;
20441;SDS011;10380;52.102;20.614;2023-07-20T11:44:22;3.58;;;2.15;;
20441;SDS011;10380;52.102;20.614;2023-07-20T11:47:12;2.55;;;2.00;;
20441;SDS011;10380;52.102;20.614;2023-07-20T11:49:40;2.33;;;2.00;;
20441;SDS011;10380;52.102;20.614;2023-07-20T11:52:13;3.60;;;1.90;;
20441;SDS011;10380;52.102;20.614;2023-07-20T11:54:42;4.00;;;1.88;;
20441;SDS011;10380;52.102;20.614;2023-07-20T11:57:20;4.97;;;2.17;;
20441;SDS011;10380;52.102;20.614;2023-07-20T12:02:28;2.75;;;1.67;;
20441;SDS011;10380;52.102;20.614;2023-07-20T12:04:56;1.85;;;1.40;;
20441;SDS011;10380;52.102;20.614;2023-07-20T12:07:25;2.17;;;1.17;;
20441;SDS011;10380;52.102;20.614;2023-07-20T12:10:10;2.13;;;1.30;;
20441;SDS011;10380;52.102;20.614;2023-07-20T12:12:39;2.53;;;1.75;;
20441;SDS011;10380;52.102;20.614;2023-07-20T12:15:16;3.28;;;1.55;;
20441;SDS011;10380;52.102;20.614;2023-07-20T12:17:54;2.75;;;1.52;;
20441;SDS011;10380;52.102;20.614;2023-07-20T12:23:10;2.38;;;1.58;;
20441;SDS011;10380;52.102;20.614;2023-07-20T12:25:42;2.15;;;1.50;;
20441;SDS011;10380;52.102;20.614;2023-07-20T12:28:14;2.60;;;1.70;;
20441;SDS011;10380;52.102;20.614;2023-07-20T12:30:42;3.53;;;1.83;;
20441;SDS011;10380;52.102;20.614;2023-07-20T12:33:11;2.80;;;1.55;;
20441;SDS011;10380;52.102;20.614;2023-07-20T12:35:42;3.30;;;1.77;;
20441;SDS011;10380;52.102;20.614;2023-07-20T12:38:10;2.47;;;1.95;;
20441;SDS011;10380;52.102;20.614;2023-07-20T12:40:37;2.60;;;1.40;;
20441;SDS011;10380;52.102;20.614;2023-07-20T12:43:04;4.82;;;1.60;;
20441;SDS011;10380;52.102;20.614;2023-07-20T12:45:31;2.65;;;1.40;;
20441;SDS011;10380;52.102;20.614;2023-07-20T12:47:58;2.17;;;1.52;;
20441;SDS011;10380;52.102;20.614;2023-07-20T12:50:26;1.35;;;1.25;;
20441;SDS011;10380;52.102;20.614;2023-07-20T12:52:53;2.20;;;1.38;;
20441;SDS011;10380;52.102;20.614;2023-07-20T12:55:20;1.95;;;1.48;;
20441;SDS011;10380;52.102;20.614;2023-07-20T12:57:47;3.55;;;1.73;;
20441;SDS011;10380;52.102;20.614;2023-07-20T13:00:16;1.60;;;1.38;;
20441;SDS011;10380;52.102;20.614;2023-07-20T13:02:43;3.25;;;1.48;;
20441;SDS011;10380;52.102;20.614;2023-07-20T13:05:10;3.45;;;1.70;;
20441;SDS011;10380;52.102;20.614;2023-07-20T13:07:38;3.88;;;1.85;;
20441;SDS011;10380;52.102;20.614;2023-07-20T13:10:09;2.10;;;1.20;;
20441;SDS011;10380;52.102;20.614;2023-07-20T13:12:37;2.03;;;1.00;;
20441;SDS011;10380;52.102;20.614;2023-07-20T13:15:05;1.30;;;1.10;;
20441;SDS011;10380;52.102;20.614;2023-07-20T13:17:34;3.20;;;1.20;;
20441;SDS011;10380;52.102;20.614;2023-07-20T13:20:03;1.77;;;1.10;;
20441;SDS011;10380;52.102;20.614;2023-07-20T13:22:32;1.77;;;1.02;;
20441;SDS011;10380;52.102;20.614;2023-07-20T13:25:00;2.60;;;1.08;;
20441;SDS011;10380;52.102;20.614;2023-07-20T13:27:27;1.58;;;1.10;;
20441;SDS011;10380;52.102;20.614;2023-07-20T13:29:54;3.00;;;1.10;;
20441;SDS011;10380;52.102;20.614;2023-07-20T13:32:23;2.22;;;1.02;;
20441;SDS011;10380;52.102;20.614;2023-07-20T13:34:50;1.00;;;0.90;;
20441;SDS011;10380;52.102;20.614;2023-07-20T13:37:17;2.53;;;1.33;;
20441;SDS011;10380;52.102;20.614;2023-07-20T13:39:47;1.50;;;1.20;;
20441;SDS011;10380;52.102;20.614;2023-07-20T13:42:15;4.57;;;2.03;;
20441;SDS011;10380;52.102;20.614;2023-07-20T13:44:45;3.97;;;1.50;;
20441;SDS011;10380;52.102;20.614;2023-07-20T13:47:13;3.47;;;1.55;;
20441;SDS011;10380;52.102;20.614;2023-07-20T13:49:43;3.75;;;1.10;;
20441;SDS011;10380;52.102;20.614;2023-07-20T13:52:13;1.42;;;1.15;;
20441;SDS011;10380;52.102;20.614;2023-07-20T13:54:44;5.25;;;1.55;;
20441;SDS011;10380;52.102;20.614;2023-07-20T13:57:16;2.15;;;1.25;;
20441;SDS011;10380;52.102;20.614;2023-07-20T13:59:43;1.75;;;1.35;;
20441;SDS011;10380;52.102;20.614;2023-07-20T14:02:13;1.25;;;1.10;;
20441;SDS011;10380;52.102;20.614;2023-07-20T14:04:44;3.55;;;1.63;;
20441;SDS011;10380;52.102;20.614;2023-07-20T14:07:12;3.40;;;1.20;;
20441;SDS011;10380;52.102;20.614;2023-07-20T14:09:43;1.55;;;1.40;;
20441;SDS011;10380;52.102;20.614;2023-07-20T14:12:12;2.95;;;1.30;;
20441;SDS011;10380;52.102;20.614;2023-07-20T14:14:43;2.63;;;1.58;;
20441;SDS011;10380;52.102;20.614;2023-07-20T14:17:13;2.88;;;1.55;;
20441;SDS011;10380;52.102;20.614;2023-07-20T14:19:40;4.97;;;1.83;;
20441;SDS011;10380;52.102;20.614;2023-07-20T14:22:09;4.03;;;2.25;;
20441;SDS011;10380;52.102;20.614;2023-07-20T14:24:38;4.63;;;1.92;;
20441;SDS011;10380;52.102;20.614;2023-07-20T14:27:05;2.83;;;1.65;;
20441;SDS011;10380;52.102;20.614;2023-07-20T14:29:32;4.93;;;1.67;;
20441;SDS011;10380;52.102;20.614;2023-07-20T14:32:03;1.70;;;1.50;;
20441;SDS011;10380;52.102;20.614;2023-07-20T14:34:33;3.15;;;2.13;;
20441;SDS011;10380;52.102;20.614;2023-07-20T14:37:05;3.33;;;1.70;;
20441;SDS011;10380;52.102;20.614;2023-07-20T14:39:32;3.88;;;1.45;;
20441;SDS011;10380;52.102;20.614;2023-07-20T14:41:59;1.65;;;1.20;;
20441;SDS011;10380;52.102;20.614;2023-07-20T14:44:26;1.67;;;1.42;;
20441;SDS011;10380;52.102;20.614;2023-07-20T14:46:53;2.72;;;1.20;;
20441;SDS011;10380;52.102;20.614;2023-07-20T14:49:39;1.85;;;1.30;;
20441;SDS011;10380;52.102;20.614;2023-07-20T14:52:06;2.70;;;1.50;;
20441;SDS011;10380;52.102;20.614;2023-07-20T14:54:36;2.30;;;1.40;;
20441;SDS011;10380;52.102;20.614;2023-07-20T14:57:03;3.38;;;1.80;;
20441;SDS011;10380;52.102;20.614;2023-07-20T14:59:31;1.50;;;1.10;;
20441;SDS011;10380;52.102;20.614;2023-07-20T15:01:58;1.85;;;1.67;;
20441;SDS011;10380;52.102;20.614;2023-07-20T15:04:25;2.60;;;1.48;;
20441;SDS011;10380;52.102;20.614;2023-07-20T15:06:54;3.42;;;1.60;;
20441;SDS011;10380;52.102;20.614;2023-07-20T15:09:21;2.83;;;1.38;;
20441;SDS011;10380;52.102;20.614;2023-07-20T15:11:48;4.38;;;1.25;;
20441;SDS011;10380;52.102;20.614;2023-07-20T15:14:15;5.50;;;1.88;;